Time;durP1;ratioP1;P1;durP2;ratioP2;P2;SDS_P1;SDS_P2;PMS_P1;PMS_P2;Temp;Humidity;BMP_temperature;BMP_pressure;BME280_temperature;BME280_humidity;BME280_pressure;Samples;Min_cycle;Max_cycle;Signal;HPM_P1;HPM_P2
2022/04/14 00:01:32;;;;;;;101.95;51.28;;;;;;;12.18;100.00;68129.31;5026127;28;20101;-86
2022/04/14 00:03:57;;;;;;;100.70;52.42;;;;;;;12.15;100.00;68129.13;5000318;28;20042;-86
2022/04/14 00:06:23;;;;;;;95.55;52.55;;;;;;;12.17;100.00;68125.50;5010462;28;20401;-85
2022/04/14 00:08:51;;;;;;;101.88;60.75;;;;;;;12.21;100.00;68135.38;5000585;28;20038;-85
2022/04/14 00:11:16;;;;;;;106.47;53.40;;;;;;;12.19;100.00;68128.34;5030844;28;20045;-86
2022/04/14 00:13:42;;;;;;;101.75;51.78;;;;;;;12.14;100.00;68124.75;5006938;28;20063;-86
2022/04/14 00:16:07;;;;;;;103.78;53.95;;;;;;;12.16;100.00;68124.38;5023881;28;20124;-86
2022/04/14 00:18:32;;;;;;;104.93;59.13;;;;;;;12.18;100.00;68129.31;5002629;28;20038;-86
2022/04/14 00:20:58;;;;;;;102.95;53.80;;;;;;;12.21;100.00;68132.72;5018181;28;20076;-87
2022/04/14 00:23:23;;;;;;;100.68;54.60;;;;;;;12.14;100.00;68124.75;5002630;28;20409;-85
2022/04/14 00:25:48;;;;;;;115.78;56.47;;;;;;;12.10;100.00;68120.78;5030539;28;20517;-86
2022/04/14 00:28:14;;;;;;;113.85;58.70;;;;;;;;;;5003771;28;20034;-86
2022/04/14 00:30:39;;;;;;;111.05;59.38;;;;;;;;;;5000121;28;20073;-85
2022/04/14 00:33:04;;;;;;;120.07;58.25;;;;;;;12.14;100.00;68122.66;5011622;28;20115;-86
2022/04/14 00:35:30;;;;;;;115.32;54.75;;;;;;;12.16;100.00;68124.94;4995658;28;20091;-86
2022/04/14 00:37:55;;;;;;;109.82;61.50;;;;;;;;;;5015027;28;20045;-86
2022/04/14 00:40:20;;;;;;;115.23;60.47;;;;;;;12.14;100.00;68124.75;5025872;28;20041;-86
2022/04/14 00:42:45;;;;;;;105.88;56.63;;;;;;;12.03;100.00;68110.16;4997470;28;20276;-85
2022/04/14 00:45:11;;;;;;;108.72;60.13;;;;;;;11.98;100.00;68103.91;4997111;28;20037;-86
2022/04/14 00:47:36;;;;;;;105.97;60.42;;;;;;;11.91;100.00;68099.78;5004043;28;20046;-86
2022/04/14 00:50:02;;;;;;;104.47;57.63;;;;;;;;;;4997060;28;20064;-85
2022/04/14 00:52:28;;;;;;;111.57;60.42;;;;;;;11.77;100.00;68080.59;5026221;28;20566;-85
2022/04/14 00:54:53;;;;;;;122.32;66.65;;;;;;;;;;5023390;28;20041;-85
2022/04/14 00:57:18;;;;;;;121.87;64.07;;;;;;;11.79;100.00;68082.88;5003894;28;20041;-86
2022/04/14 00:59:44;;;;;;;120.78;62.63;;;;;;;11.83;100.00;68087.44;5014821;28;20677;-86
2022/04/14 01:02:09;;;;;;;114.88;60.22;;;;;;;;;;5012700;28;20038;-86
2022/04/14 01:04:35;;;;;;;126.05;65.97;;;;;;;11.75;100.00;68086.91;5025392;28;20413;-85
2022/04/14 01:07:01;;;;;;;114.95;64.57;;;;;;;11.75;100.00;68078.91;5000136;28;20042;-86
2022/04/14 01:09:29;;;;;;;120.90;60.58;;;;;;;11.65;100.00;68070.78;5013877;28;20045;-86
2022/04/14 01:11:55;;;;;;;116.68;62.30;;;;;;;11.61;100.00;68063.00;5019739;28;20062;-87
2022/04/14 01:14:36;;;;;;;123.22;67.25;;;;;;;11.60;100.00;68056.53;5012726;28;20040;-86
2022/04/14 01:17:06;;;;;;;131.52;68.57;;;;;;;11.57;100.00;68059.03;4984326;28;20041;-85
2022/04/14 01:19:31;;;;;;;132.73;71.18;;;;;;;11.57;100.00;68053.69;4998919;28;20056;-86
2022/04/14 01:22:01;;;;;;;130.40;67.38;;;;;;;11.56;100.00;68057.88;5005545;28;20038;-86
2022/04/14 01:24:27;;;;;;;126.40;63.13;;;;;;;11.49;100.00;68050.50;5023995;28;20057;-87
2022/04/14 01:26:54;;;;;;;135.90;68.35;;;;;;;11.48;100.00;68049.38;5010085;28;20034;-86
2022/04/14 01:29:22;;;;;;;143.07;71.13;;;;;;;11.51;100.00;68052.78;5026688;28;20048;-86
2022/04/14 01:31:48;;;;;;;146.80;72.70;;;;;;;11.53;100.00;68057.69;5027172;28;20382;-86
2022/04/14 01:34:13;;;;;;;145.90;74.53;;;;;;;11.53;100.00;68055.03;5009715;28;20100;-85
2022/04/14 01:36:38;;;;;;;142.43;72.53;;;;;;;11.52;100.00;68053.91;5008288;28;20053;-86
2022/04/14 01:39:04;;;;;;;144.90;73.30;;;;;;;11.50;100.00;68054.28;5027186;28;20520;-86
2022/04/14 01:41:29;;;;;;;150.25;74.30;;;;;;;;;;5003996;28;20046;-86
2022/04/14 01:43:54;;;;;;;144.63;71.60;;;;;;;;;;5028027;28;20537;-86
2022/04/14 01:46:19;;;;;;;153.27;78.47;;;;;;;11.47;100.00;68048.22;5027650;28;20841;-86
2022/04/14 01:48:45;;;;;;;151.85;73.95;;;;;;;11.45;100.00;68045.97;5026521;28;20760;-86
2022/04/14 01:51:10;;;;;;;149.63;73.60;;;;;;;11.43;100.00;68043.69;5009702;28;20037;-86
2022/04/14 01:53:35;;;;;;;144.70;70.60;;;;;;;11.37;100.00;68039.53;5024958;28;20049;-86
2022/04/14 01:56:01;;;;;;;147.23;71.95;;;;;;;11.37;100.00;68036.88;5001913;28;20053;-86
2022/04/14 01:58:26;;;;;;;151.30;72.75;;;;;;;11.36;100.00;68038.41;5020715;28;20644;-85
2022/04/14 02:00:51;;;;;;;159.20;70.43;;;;;;;11.30;100.00;68029.47;5025806;28;20448;-86
2022/04/14 02:03:17;;;;;;;167.20;72.03;;;;;;;11.38;100.00;68037.44;5028407;28;20065;-86
2022/04/14 02:05:42;;;;;;;174.88;81.78;;;;;;;11.39;100.00;68038.56;5025365;28;20339;-86
2022/04/14 02:08:07;;;;;;;166.02;80.93;;;;;;;11.36;100.00;68035.16;5027439;28;20061;-86
2022/04/14 02:10:33;;;;;;;180.40;86.38;;;;;;;11.37;100.00;68036.31;5007244;28;20083;-86
2022/04/14 02:12:59;;;;;;;194.00;83.82;;;;;;;11.35;100.00;68034.59;5026776;28;20124;-86
2022/04/14 02:15:24;;;;;;;185.50;78.40;;;;;;;;;;5009225;28;20049;-84
2022/04/14 02:17:49;;;;;;;196.60;71.43;;;;;;;11.34;100.00;68036.13;5027073;28;20053;-86
2022/04/14 02:20:15;;;;;;;210.50;83.05;;;;;;;11.33;100.00;68027.00;5027863;28;20320;-85
2022/04/14 02:22:41;;;;;;;278.77;93.00;;;;;;;11.28;100.00;68027.22;5023922;28;20048;-85
2022/04/14 02:25:07;;;;;;;287.05;98.10;;;;;;;11.27;100.00;68030.84;5006306;28;20497;-86
2022/04/14 02:27:32;;;;;;;312.60;98.70;;;;;;;;;;5007097;28;20084;-87
2022/04/14 02:29:58;;;;;;;394.48;96.38;;;;;;;11.23;100.00;68026.88;5005667;28;20077;-86
2022/04/14 02:32:23;;;;;;;399.20;91.82;;;;;;;11.19;100.00;68017.00;5009275;28;20080;-85
2022/04/14 02:34:48;;;;;;;328.27;86.63;;;;;;;11.20;100.00;68017.56;5026395;28;20056;-85
2022/04/14 02:37:14;;;;;;;476.88;107.18;;;;;;;11.16;100.00;68013.03;5026102;28;20044;-85
2022/04/14 02:39:39;;;;;;;483.30;116.43;;;;;;;11.14;100.00;68013.44;5025239;28;20046;-85
2022/04/14 02:42:05;;;;;;;380.42;88.53;;;;;;;11.10;100.00;68006.22;5006038;28;20033;-85
2022/04/14 02:44:30;;;;;;;488.02;96.30;;;;;;;11.06;100.00;68004.91;5023492;28;20065;-85
2022/04/14 02:46:55;;;;;;;555.53;114.20;;;;;;;11.11;100.00;68007.94;5026816;28;20037;-85
2022/04/14 02:49:21;;;;;;;403.25;99.47;;;;;;;11.11;100.00;68007.94;5004253;28;20128;-84
2022/04/14 02:51:47;;;;;;;383.70;111.18;;;;;;;11.19;100.00;68016.44;5002953;28;20128;-85
2022/04/14 02:54:12;;;;;;;347.27;91.43;;;;;;;11.19;100.00;68005.78;5007101;28;20041;-86
2022/04/14 02:56:37;;;;;;;462.02;98.68;;;;;;;;;;5002724;28;20046;-85
2022/04/14 02:59:03;;;;;;;341.20;109.37;;;;;;;11.16;100.00;68018.91;5004174;28;20053;-86
2022/04/14 03:01:28;;;;;;;490.33;118.53;;;;;;;11.19;100.00;68016.44;5023968;28;20371;-85
2022/04/14 03:03:53;;;;;;;406.20;105.70;;;;;;;11.19;100.00;68021.75;5027316;28;20131;-85
2022/04/14 03:06:18;;;;;;;506.38;120.57;;;;;;;11.21;100.00;68021.38;5006301;28;20104;-86
2022/04/14 03:08:44;;;;;;;407.30;102.13;;;;;;;;;;5006663;28;20124;-85
2022/04/14 03:11:10;;;;;;;537.73;125.03;;;;;;;11.19;100.00;68016.44;5024501;28;20520;-85
2022/04/14 03:13:35;;;;;;;413.73;109.13;;;;;;;11.18;100.00;68015.88;5023694;28;20285;-85
2022/04/14 03:16:00;;;;;;;442.88;118.28;;;;;;;;;;5030989;28;20041;-85
2022/04/14 03:18:25;;;;;;;473.52;129.10;;;;;;;11.12;100.00;68011.16;5010301;28;20080;-85
2022/04/14 03:20:51;;;;;;;501.75;121.18;;;;;;;11.13;100.00;68014.94;5004229;28;20041;-85
2022/04/14 03:23:16;;;;;;;618.75;133.25;;;;;;;;;;5026652;28;20084;-85
2022/04/14 03:25:42;;;;;;;489.60;104.35;;;;;;;11.07;100.00;68003.38;5009740;28;20073;-86
2022/04/14 03:28:07;;;;;;;557.33;127.70;;;;;;;11.06;100.00;68005.47;5025307;28;20026;-85
2022/04/14 03:30:32;;;;;;;410.40;116.20;;;;;;;11.07;100.00;68003.38;5025464;28;20095;-85
2022/04/14 03:32:58;;;;;;;468.20;107.72;;;;;;;11.07;100.00;68009.25;5025619;28;20038;-85
2022/04/14 03:35:23;;;;;;;508.38;122.20;;;;;;;11.08;100.00;68004.53;5006010;28;20511;-86
2022/04/14 03:37:48;;;;;;;502.30;116.43;;;;;;;11.05;100.00;68003.78;5026411;28;20042;-85
2022/04/14 03:40:14;;;;;;;492.45;135.25;;;;;;;11.09;100.00;68005.66;5007715;28;20045;-86
2022/04/14 03:42:39;;;;;;;701.85;142.32;;;;;;;;;;5024948;28;20038;-85
2022/04/14 03:45:06;;;;;;;596.92;125.70;;;;;;;11.05;100.00;68004.34;5006770;28;20126;-86
2022/04/14 03:47:31;;;;;;;678.03;121.28;;;;;;;11.02;100.00;67997.72;5002862;28;20057;-85
2022/04/14 03:49:56;;;;;;;559.97;109.00;;;;;;;11.01;100.00;67991.25;5023679;28;20528;-86
2022/04/14 03:52:22;;;;;;;496.10;110.28;;;;;;;10.99;100.00;67994.88;5000547;28;20037;-87
2022/04/14 03:54:47;;;;;;;745.20;136.00;;;;;;;11.02;100.00;67998.28;5005761;28;20045;-85
2022/04/14 03:57:12;;;;;;;555.40;106.47;;;;;;;11.02;100.00;67998.28;5026467;28;20107;-86
2022/04/14 03:59:38;;;;;;;689.38;130.50;;;;;;;11.02;100.00;67997.72;5001955;28;20071;-84
2022/04/14 04:02:04;;;;;;;591.75;130.88;;;;;;;11.03;100.00;67999.41;5006231;28;20414;-86
2022/04/14 04:04:31;;;;;;;598.60;113.40;;;;;;;;;;5023990;28;20076;-86
2022/04/14 04:06:56;;;;;;;522.38;109.47;;;;;;;10.95;100.00;67990.31;5005002;28;20045;-85
2022/04/14 04:09:22;;;;;;;533.83;132.27;;;;;;;10.97;100.00;67992.59;5004788;28;20039;-85
2022/04/14 04:11:47;;;;;;;568.20;127.00;;;;;;;10.97;100.00;67992.59;5023525;28;20401;-86
2022/04/14 04:14:12;;;;;;;493.92;106.20;;;;;;;10.91;100.00;67985.78;5022363;28;20075;-85
2022/04/14 04:16:38;;;;;;;620.20;131.98;;;;;;;10.89;100.00;67983.50;5023807;28;20041;-86
2022/04/14 04:19:03;;;;;;;501.05;107.05;;;;;;;10.87;100.00;67983.91;5006808;28;20038;-86
2022/04/14 04:21:30;;;;;;;447.02;104.40;;;;;;;10.85;100.00;67978.97;5002015;28;20046;-85
2022/04/14 04:23:55;;;;;;;438.25;124.38;;;;;;;;;;5024614;28;20045;-85
2022/04/14 04:26:21;;;;;;;460.70;130.82;;;;;;;10.95;100.00;67990.31;5007503;28;20408;-85
2022/04/14 04:28:46;;;;;;;533.33;112.78;;;;;;;10.90;100.00;67984.63;5006387;28;20038;-86
2022/04/14 04:31:11;;;;;;;425.55;107.57;;;;;;;10.80;100.00;67973.88;5006016;28;20041;-86
2022/04/14 04:33:37;;;;;;;450.50;111.35;;;;;;;;;;5002082;28;20055;-86
2022/04/14 04:36:02;;;;;;;499.35;113.85;;;;;;;10.84;100.00;67977.84;5007061;28;20038;-87
2022/04/14 04:38:28;;;;;;;408.75;105.10;;;;;;;10.85;100.00;67981.66;5005092;28;20053;-87
2022/04/14 04:40:55;;;;;;;501.00;133.25;;;;;;;10.90;100.00;67984.06;5007303;28;20056;-86
2022/04/14 04:43:20;;;;;;;485.13;135.10;;;;;;;10.86;100.00;67979.53;5004051;28;20045;-86
2022/04/14 04:45:46;;;;;;;418.33;110.25;;;;;;;10.86;100.00;67982.22;5023339;28;20060;-86
2022/04/14 04:48:11;;;;;;;427.33;111.97;;;;;;;10.86;100.00;67974.22;5003554;28;20116;-85
2022/04/14 04:50:36;;;;;;;457.60;121.00;;;;;;;;;;5006199;28;20045;-86
2022/04/14 04:53:01;;;;;;;485.92;133.85;;;;;;;10.85;100.00;67978.97;5024835;28;20048;-85
2022/04/14 04:55:27;;;;;;;546.83;148.65;;;;;;;;;;5022932;28;20536;-86
2022/04/14 04:57:52;;;;;;;537.97;122.10;;;;;;;;;;5026036;28;20140;-86
2022/04/14 05:00:17;;;;;;;513.87;127.20;;;;;;;;;;5000307;28;20292;-86
2022/04/14 05:02:42;;;;;;;466.70;112.27;;;;;;;10.78;100.00;67965.69;5005692;28;20363;-86
2022/04/14 05:05:08;;;;;;;396.70;110.20;;;;;;;10.75;100.00;67972.94;5017440;28;20380;-86
2022/04/14 05:07:33;;;;;;;476.02;136.50;;;;;;;10.80;100.00;67973.31;5018181;28;20048;-86
2022/04/14 05:09:59;;;;;;;408.35;122.68;;;;;;;10.80;100.00;67979.19;5023894;28;20099;-86
2022/04/14 05:12:24;;;;;;;382.77;118.07;;;;;;;10.81;100.00;67974.44;5002991;28;20446;-85
2022/04/14 05:14:49;;;;;;;372.83;113.07;;;;;;;10.78;100.00;67971.03;5005938;28;20188;-86
2022/04/14 05:17:15;;;;;;;393.38;113.63;;;;;;;10.77;100.00;67965.13;5004106;28;20053;-86
2022/04/14 05:19:40;;;;;;;408.00;118.15;;;;;;;10.80;100.00;67967.97;5010790;28;20049;-86
2022/04/14 05:22:06;;;;;;;408.67;117.28;;;;;;;10.80;100.00;67978.63;5002452;28;20045;-86
2022/04/14 05:24:31;;;;;;;423.45;124.95;;;;;;;;;;5006273;28;20464;-86
2022/04/14 05:26:56;;;;;;;403.02;107.80;;;;;;;;;;5023655;28;20057;-87
2022/04/14 05:29:22;;;;;;;382.67;110.90;;;;;;;;;;5010492;28;20076;-87
2022/04/14 05:31:48;;;;;;;441.45;131.98;;;;;;;10.80;100.00;67973.88;5021353;28;20052;-86
2022/04/14 05:34:13;;;;;;;360.00;111.32;;;;;;;;;;5003764;28;20042;-86
2022/04/14 05:36:38;;;;;;;383.77;114.90;;;;;;;10.88;100.00;67981.81;5006139;28;20045;-86
2022/04/14 05:39:03;;;;;;;424.42;133.30;;;;;;;;;;5005708;28;20281;-85
2022/04/14 05:41:29;;;;;;;374.60;108.63;;;;;;;;;;5025383;28;20091;-86
2022/04/14 05:43:55;;;;;;;393.52;110.03;;;;;;;10.88;100.00;67982.38;5008634;28;20280;-86
2022/04/14 05:46:20;;;;;;;362.17;104.65;;;;;;;10.88;100.00;67982.38;5006086;28;20037;-87
2022/04/14 05:48:45;;;;;;;405.45;115.18;;;;;;;10.88;100.00;67981.81;5003871;28;20129;-87
2022/04/14 05:51:11;;;;;;;399.95;107.00;;;;;;;10.89;100.00;67986.19;5007796;28;20088;-86
2022/04/14 05:53:36;;;;;;;429.23;136.88;;;;;;;;;;5009641;28;20124;-86
2022/04/14 05:56:01;;;;;;;411.08;139.82;;;;;;;;;;5010858;28;20397;-86
2022/04/14 05:58:26;;;;;;;364.43;122.50;;;;;;;;;;5008771;28;20053;-86
2022/04/14 06:00:52;;;;;;;343.23;110.57;;;;;;;10.89;100.00;67986.19;5026321;28;20272;-84
2022/04/14 06:03:17;;;;;;;352.13;116.85;;;;;;;10.87;100.00;67983.91;5027117;28;20053;-85
2022/04/14 06:05:42;;;;;;;358.52;123.50;;;;;;;10.86;100.00;67980.09;4987224;28;20433;-85
2022/04/14 06:08:08;;;;;;;368.70;120.30;;;;;;;;;;5001249;28;20037;-85
2022/04/14 06:10:35;;;;;;;353.40;120.63;;;;;;;10.85;100.00;67978.97;4996151;28;20080;-85
2022/04/14 06:13:00;;;;;;;348.80;110.55;;;;;;;10.84;100.00;67977.84;4999426;28;20280;-85
2022/04/14 06:15:26;;;;;;;383.67;130.13;;;;;;;;;;5004000;28;20046;-85
2022/04/14 06:17:52;;;;;;;344.60;102.05;;;;;;;10.80;100.00;67978.63;4982564;28;20041;-85
2022/04/14 06:20:17;;;;;;;342.98;106.05;;;;;;;10.82;100.00;67975.56;4998714;28;20064;-85
2022/04/14 06:22:44;;;;;;;359.85;111.10;;;;;;;10.80;100.00;67973.31;4997629;28;20618;-84
2022/04/14 06:25:13;;;;;;;369.13;120.90;;;;;;;;;;4991160;28;20052;-85
2022/04/14 06:27:45;;;;;;;372.50;125.65;;;;;;;10.82;100.00;67975.56;4979427;28;20731;-85
2022/04/14 06:30:14;;;;;;;347.58;101.85;;;;;;;10.79;100.00;67972.19;5007598;28;20042;-85
2022/04/14 06:32:39;;;;;;;375.55;118.60;;;;;;;;;;5010926;28;20179;-84
2022/04/14 06:35:07;;;;;;;356.33;120.75;;;;;;;10.78;100.00;67971.03;5005132;28;20125;-85
2022/04/14 06:37:33;;;;;;;338.48;116.05;;;;;;;;;;5025796;28;20065;-84
2022/04/14 06:39:58;;;;;;;343.85;108.03;;;;;;;10.85;100.00;67978.97;5027192;28;20500;-84
2022/04/14 06:42:24;;;;;;;347.58;109.05;;;;;;;;;;5026921;28;20350;-85
2022/04/14 06:44:49;;;;;;;345.85;112.43;;;;;;;10.80;100.00;67973.88;5007696;28;20404;-85
2022/04/14 06:47:14;;;;;;;332.00;114.03;;;;;;;10.82;100.00;67975.56;5005188;28;20041;-85
2022/04/14 06:49:40;;;;;;;349.27;113.75;;;;;;;10.82;100.00;67976.13;5007497;28;20489;-85
2022/04/14 06:52:05;;;;;;;316.00;107.78;;;;;;;10.75;100.00;67967.63;5009446;28;20605;-84
2022/04/14 06:54:31;;;;;;;287.60;96.45;;;;;;;10.70;100.00;67961.94;5024811;28;20557;-85
2022/04/14 06:56:56;;;;;;;308.98;99.22;;;;;;;10.70;100.00;67961.94;5023627;28;20048;-84
2022/04/14 06:59:21;;;;;;;316.40;106.72;;;;;;;10.76;100.00;67963.44;5008996;28;20464;-85
2022/04/14 07:01:47;;;;;;;293.00;102.68;;;;;;;10.82;100.00;67975.56;5022987;28;20049;-85
2022/04/14 07:04:12;;;;;;;277.98;98.93;;;;;;;;;;5009740;28;20029;-84
2022/04/14 07:06:37;;;;;;;292.63;121.25;;;;;;;10.89;100.00;67988.28;5000447;28;20743;-84
2022/04/14 07:09:03;;;;;;;281.45;99.97;;;;;;;10.94;100.00;67989.19;5026459;28;20085;-85
2022/04/14 07:11:28;;;;;;;275.35;95.47;;;;;;;11.02;100.00;67998.28;5026914;28;20496;-84
2022/04/14 07:13:54;;;;;;;271.63;97.32;;;;;;;10.95;100.00;67992.97;5028524;28;20227;-84
2022/04/14 07:16:19;;;;;;;251.15;98.55;;;;;;;10.99;100.00;67994.28;5008375;28;20033;-84
2022/04/14 07:18:45;;;;;;;256.55;103.53;;;;;;;11.03;100.00;68002.06;5007682;28;20041;-85
2022/04/14 07:21:12;;;;;;;229.77;83.00;;;;;;;11.01;100.00;67999.78;5007955;28;20103;-85
2022/04/14 07:23:38;;;;;;;242.63;101.28;;;;;;;11.02;100.00;68000.94;5005288;28;20072;-84
2022/04/14 07:26:03;;;;;;;234.25;83.00;;;;;;;11.00;100.00;67995.44;5025518;28;20515;-84
2022/04/14 07:28:29;;;;;;;211.77;85.82;;;;;;;11.06;100.00;68002.81;5005381;28;20038;-84
2022/04/14 07:30:54;;;;;;;212.70;87.70;;;;;;;;;;5002624;28;20471;-84
2022/04/14 07:33:19;;;;;;;211.93;81.18;;;;;;;11.10;100.00;68006.22;5024126;28;20490;-84
2022/04/14 07:35:45;;;;;;;198.85;81.57;;;;;;;11.15;100.00;68011.91;5005705;28;20053;-85
2022/04/14 07:38:11;;;;;;;190.45;85.10;;;;;;;11.21;100.00;68018.72;5020921;28;20643;-84
2022/04/14 07:40:36;;;;;;;176.13;72.53;;;;;;;11.25;100.00;68023.25;5019710;28;20045;-84
2022/04/14 07:43:02;;;;;;;172.90;77.13;;;;;;;11.33;100.00;68032.31;5002260;28;20034;-85
2022/04/14 07:45:27;;;;;;;154.10;73.97;;;;;;;11.36;100.00;68035.16;4997981;28;20048;-85
2022/04/14 07:47:53;;;;;;;159.75;79.15;;;;;;;11.50;100.00;68056.97;5016164;28;20092;-85
2022/04/14 07:50:19;;;;;;;139.35;68.10;;;;;;;;;;4994289;28;20042;-85
2022/04/14 07:52:56;;;;;;;132.88;68.03;;;;;;;11.62;100.00;68064.13;5014403;28;20126;-84
2022/04/14 07:55:33;;;;;;;125.05;61.65;;;;;;;11.64;100.00;68061.63;5017261;28;20139;-85
2022/04/14 07:58:04;;;;;;;120.68;58.08;;;;;;;;;;4976075;28;20045;-85
2022/04/14 08:00:30;;;;;;;108.38;54.97;;;;;;;11.82;100.00;68086.28;5005855;28;20126;-85
2022/04/14 08:02:56;;;;;;;97.90;48.38;;;;;;;;;;5018457;28;20731;-84
2022/04/14 08:05:31;;;;;;;96.72;49.45;;;;;;;11.83;100.00;68088.00;5004123;28;20045;-84
2022/04/14 08:07:57;;;;;;;97.25;49.47;;;;;;;12.04;100.00;68105.41;5007956;28;20057;-84
2022/04/14 08:10:22;;;;;;;91.82;48.53;;;;;;;12.09;100.00;68111.09;4993745;28;20080;-84
2022/04/14 08:12:48;;;;;;;81.20;44.83;;;;;;;12.18;100.00;68126.63;5003200;28;20045;-85
2022/04/14 08:15:14;;;;;;;80.03;45.22;;;;;;;;;;5021296;28;20148;-84
2022/04/14 08:17:43;;;;;;;79.68;42.47;;;;;;;12.54;100.00;68166.97;5024970;28;20124;-84
2022/04/14 08:20:10;;;;;;;66.28;39.30;;;;;;;12.69;100.00;68183.47;5019594;28;20103;-84
2022/04/14 08:22:50;;;;;;;63.22;41.40;;;;;;;12.74;100.00;68189.13;5021514;28;20045;-84
2022/04/14 08:25:20;;;;;;;50.90;31.02;;;;;;;12.62;100.00;68170.16;5015044;28;20051;-84
2022/04/14 08:27:47;;;;;;;54.95;31.48;;;;;;;12.66;100.00;68180.06;4996213;28;20045;-84
2022/04/14 08:30:12;;;;;;;54.85;38.42;;;;;;;;;;4992528;28;20091;-84
2022/04/14 08:32:38;;;;;;;55.65;31.35;;;;;;;;;;5014847;28;20521;-84
2022/04/14 08:35:04;;;;;;;49.67;30.42;;;;;;;13.10;100.00;68228.94;5021480;28;20072;-84
2022/04/14 08:37:29;;;;;;;47.10;27.40;;;;;;;13.26;100.00;68246.59;5002913;28;20119;-84
2022/04/14 08:39:56;;;;;;;46.22;28.85;;;;;;;;;;4995373;28;20069;-84
2022/04/14 08:42:26;;;;;;;38.53;25.80;;;;;;;13.41;100.00;68265.78;5022079;28;20049;-84
2022/04/14 08:44:59;;;;;;;41.92;25.33;;;;;;;13.47;100.00;68269.91;4994543;28;20053;-84
2022/04/14 08:47:27;;;;;;;39.28;21.73;;;;;;;13.53;100.00;68271.38;5002597;28;20053;-84
2022/04/14 08:49:54;;;;;;;38.92;22.35;;;;;;;13.58;100.00;68281.84;5019700;28;20133;-84
2022/04/14 08:52:21;;;;;;;36.70;22.13;;;;;;;13.56;100.00;68274.25;5020532;28;20045;-84
2022/04/14 08:54:48;;;;;;;37.95;22.30;;;;;;;;;;5020741;28;20120;-84
2022/04/14 08:57:15;;;;;;;37.50;24.25;;;;;;;13.80;100.00;68301.53;5003598;28;20087;-84
2022/04/14 08:59:44;;;;;;;35.75;24.38;;;;;;;;;;5003182;28;20054;-84
2022/04/14 09:02:12;;;;;;;30.00;18.73;;;;;;;;;;4985866;28;20064;-85
2022/04/14 09:04:41;;;;;;;35.88;21.92;;;;;;;13.99;100.00;68327.94;5001555;28;20049;-85
2022/04/14 09:07:06;;;;;;;33.30;20.33;;;;;;;14.01;100.00;68330.19;5005889;28;20050;-84
2022/04/14 09:09:31;;;;;;;35.28;24.20;;;;;;;14.04;100.00;68327.69;5023240;28;20037;-84
2022/04/14 09:11:57;;;;;;;37.63;21.63;;;;;;;14.12;100.00;68336.81;5021685;28;20042;-85
2022/04/14 09:14:22;;;;;;;29.25;21.77;;;;;;;14.14;99.30;68347.69;5017005;28;20069;-84
2022/04/14 09:16:48;;;;;;;28.30;20.42;;;;;;;;;;5006375;28;20160;-84
2022/04/14 09:19:14;;;;;;;27.15;18.38;;;;;;;14.30;97.35;68365.34;5019919;28;20042;-84
2022/04/14 09:21:56;;;;;;;31.92;19.35;;;;;;;;;;5026267;28;20030;-85
2022/04/14 09:24:38;;;;;;;27.77;19.15;;;;;;;14.60;96.91;68390.88;5031466;28;20045;-85
2022/04/14 09:27:03;;;;;;;28.27;20.27;;;;;;;;;;5018100;28;20099;-85
2022/04/14 09:29:29;;;;;;;30.10;21.73;;;;;;;;;;5011086;28;20053;-85
2022/04/14 09:31:54;;;;;;;26.63;17.33;;;;;;;;;;5029146;28;20333;-85
2022/04/14 09:34:48;;;;;;;22.85;17.33;;;;;;;15.03;94.01;68438.72;5030877;28;20490;-85
2022/04/14 09:37:14;;;;;;;22.77;14.43;;;;;;;15.06;92.80;68447.50;4995345;28;20060;-85
2022/04/14 09:39:59;;;;;;;21.98;13.45;;;;;;;15.26;90.31;68471.81;5012901;28;20560;-85
2022/04/14 09:42:26;;;;;;;21.27;13.25;;;;;;;;;;5027349;28;20064;-84
2022/04/14 09:44:52;;;;;;;17.73;12.50;;;;;;;15.35;90.26;68471.91;5001389;28;20133;-85
2022/04/14 09:47:25;;;;;;;16.25;11.13;;;;;;;15.34;88.33;68472.88;5009280;28;20033;-85
2022/04/14 09:49:50;;;;;;;21.75;13.35;;;;;;;;;;5021523;28;20044;-85
2022/04/14 09:52:16;;;;;;;21.30;12.52;;;;;;;15.47;88.99;68493.06;5003912;28;20045;-85
2022/04/14 09:54:41;;;;;;;15.90;10.93;;;;;;;;;;5024471;28;20430;-85
2022/04/14 09:57:10;;;;;;;17.97;12.63;;;;;;;15.65;86.29;68507.06;5009778;28;20049;-84
2022/04/14 09:59:37;;;;;;;21.25;12.73;;;;;;;;;;5028687;28;20303;-84
2022/04/14 10:02:16;;;;;;;18.05;13.10;;;;;;;15.74;86.60;68517.34;5027544;28;20127;-85
2022/04/14 10:04:42;;;;;;;17.67;13.32;;;;;;;;;;5022299;28;20053;-84
2022/04/14 10:07:08;;;;;;;18.67;12.87;;;;;;;;;;4998004;28;20054;-85
2022/04/14 10:09:35;;;;;;;19.15;14.20;;;;;;;15.78;86.84;68521.91;5020187;28;20288;-84
2022/04/14 10:12:02;;;;;;;17.77;14.57;;;;;;;;;;4999149;28;20061;-86
2022/04/14 10:14:27;;;;;;;17.75;13.02;;;;;;;16.20;86.23;68569.19;5003393;28;20053;-85
2022/04/14 10:16:53;;;;;;;18.00;12.00;;;;;;;16.23;84.39;68572.03;5004750;28;20057;-87
2022/04/14 10:19:19;;;;;;;20.63;12.82;;;;;;;16.01;85.17;68547.53;5004935;28;20052;-84
2022/04/14 10:21:45;;;;;;;17.27;13.07;;;;;;;;;;5016982;28;20786;-84
2022/04/14 10:24:15;;;;;;;19.48;12.85;;;;;;;16.10;85.27;68557.22;5020216;28;20188;-83
2022/04/14 10:26:43;;;;;;;18.83;11.63;;;;;;;16.13;85.89;68560.63;5017702;28;20130;-84
2022/04/14 10:29:12;;;;;;;17.20;11.80;;;;;;;16.16;84.21;68564.63;5008809;28;20033;-86
2022/04/14 10:31:40;;;;;;;15.48;10.38;;;;;;;;;;5001226;28;20586;-84
2022/04/14 10:34:07;;;;;;;23.63;12.23;;;;;;;;;;5003628;28;20041;-85
2022/04/14 10:36:41;;;;;;;16.85;10.70;;;;;;;16.36;85.02;68586.84;5021377;28;20051;-83
2022/04/14 10:39:10;;;;;;;17.02;11.13;;;;;;;16.53;83.34;68605.66;5019951;28;20756;-86
2022/04/14 10:41:38;;;;;;;15.65;8.80;;;;;;;;;;4996479;28;20061;-86
2022/04/14 10:44:04;;;;;;;12.32;7.78;;;;;;;16.60;78.86;68613.06;5005086;28;20041;-86
2022/04/14 10:46:40;;;;;;;10.63;6.22;;;;;;;16.73;75.94;68633.28;5023541;28;20056;-84
2022/04/14 10:49:14;;;;;;;10.68;6.63;;;;;;;;;;5004975;28;20037;-85
2022/04/14 10:51:40;;;;;;;10.15;5.80;;;;;;;16.56;76.11;68608.53;5012030;28;20052;-85
2022/04/14 10:54:06;;;;;;;10.55;6.68;;;;;;;;;;5021937;28;20046;-86
2022/04/14 10:56:34;;;;;;;10.45;6.50;;;;;;;;;;4998210;28;20053;-84
2022/04/14 10:59:00;;;;;;;9.23;6.07;;;;;;;;;;5015239;28;20046;-84
2022/04/14 11:01:52;;;;;;;11.05;7.30;;;;;;;;;;5002024;28;20050;-86
2022/04/14 11:04:53;;;;;;;12.05;8.52;;;;;;;17.08;77.76;68667.25;5006352;28;20061;-86
2022/04/14 11:07:22;;;;;;;11.48;7.32;;;;;;;;;;4998954;28;20051;-86
2022/04/14 11:09:55;;;;;;;10.48;7.57;;;;;;;16.82;78.17;68637.63;5002206;28;20053;-87
2022/04/14 11:12:26;;;;;;;11.73;7.15;;;;;;;;;;5024961;28;20040;-86
2022/04/14 11:15:03;;;;;;;11.43;7.32;;;;;;;16.99;77.26;68656.44;5025007;28;20111;-86
2022/04/14 11:17:53;;;;;;;10.35;7.53;;;;;;;17.17;78.57;68671.59;5025376;28;20121;-84
2022/04/14 11:20:22;;;;;;;11.43;6.82;;;;;;;;;;5000943;28;20057;-85
2022/04/14 11:23:03;;;;;;;;;;;;;;;17.40;74.54;68702.06;4991991;28;20045;-86
2022/04/14 11:25:47;;;;;;;9.93;5.55;;;;;;;17.48;75.92;68711.19;5016995;28;19917;-84
2022/04/14 11:28:25;;;;;;;8.55;6.25;;;;;;;17.56;76.73;68720.31;5005091;28;20048;-86
2022/04/14 11:31:01;;;;;;;8.25;5.32;;;;;;;17.69;72.84;68735.16;5015282;28;20132;-83
2022/04/14 11:33:28;;;;;;;11.23;5.97;;;;;;;17.64;74.16;68734.28;5030040;28;20041;-84
2022/04/14 11:36:09;;;;;;;9.43;5.13;;;;;;;17.68;73.90;68734.00;5022784;28;20045;-83
2022/04/14 11:39:08;;;;;;;8.68;6.07;;;;;;;17.55;71.96;68725.13;5024195;28;20045;-82
2022/04/14 11:41:36;;;;;;;;;;;;;;;17.58;72.15;68722.63;4965286;28;20033;-84